sensor_id;sensor_type;location;lat;lon;timestamp;noise_LAeq;noise_LA_min;noise_LA_max;noise_LA01;noise_LA95
66399;Laerm;54877;51.504;3.894;2024-02-26T00:01:23;37.16;33.80;59.71;;
66399;Laerm;54877;51.504;3.894;2024-02-26T00:03:48;36.20;33.56;55.45;;
66399;Laerm;54877;51.504;3.894;2024-02-26T00:06:13;37.65;33.94;56.45;;
66399;Laerm;54877;51.504;3.894;2024-02-26T00:08:39;36.28;33.71;53.01;;
66399;Laerm;54877;51.504;3.894;2024-02-26T00:11:04;36.92;33.87;56.87;;
66399;Laerm;54877;51.504;3.894;2024-02-26T00:13:29;39.84;33.75;62.46;;
66399;Laerm;54877;51.504;3.894;2024-02-26T00:15:54;36.61;33.77;55.58;;
66399;Laerm;54877;51.504;3.894;2024-02-26T00:18:20;39.96;33.81;62.27;;
66399;Laerm;54877;51.504;3.894;2024-02-26T00:20:45;35.82;33.85;51.63;;
66399;Laerm;54877;51.504;3.894;2024-02-26T00:23:10;36.27;33.76;55.40;;
66399;Laerm;54877;51.504;3.894;2024-02-26T00:25:36;35.33;33.71;47.91;;
66399;Laerm;54877;51.504;3.894;2024-02-26T00:28:03;35.69;33.78;55.25;;
66399;Laerm;54877;51.504;3.894;2024-02-26T00:30:29;39.35;33.68;61.63;;
66399;Laerm;54877;51.504;3.894;2024-02-26T00:32:55;37.89;33.68;56.89;;
66399;Laerm;54877;51.504;3.894;2024-02-26T00:35:20;37.14;34.09;57.45;;
66399;Laerm;54877;51.504;3.894;2024-02-26T00:37:45;37.00;33.79;62.06;;
66399;Laerm;54877;51.504;3.894;2024-02-26T00:40:11;35.48;33.89;46.95;;
66399;Laerm;54877;51.504;3.894;2024-02-26T00:42:36;35.51;33.91;44.06;;
66399;Laerm;54877;51.504;3.894;2024-02-26T00:45:02;41.27;34.05;68.13;;
66399;Laerm;54877;51.504;3.894;2024-02-26T00:47:28;37.53;34.06;60.81;;
66399;Laerm;54877;51.504;3.894;2024-02-26T00:49:53;37.50;34.03;56.08;;
66399;Laerm;54877;51.504;3.894;2024-02-26T00:52:19;38.07;33.90;57.46;;
66399;Laerm;54877;51.504;3.894;2024-02-26T00:54:44;35.98;34.01;45.04;;
66399;Laerm;54877;51.504;3.894;2024-02-26T00:57:09;36.45;34.06;53.50;;
66399;Laerm;54877;51.504;3.894;2024-02-26T00:59:35;38.72;34.15;63.92;;
66399;Laerm;54877;51.504;3.894;2024-02-26T01:02:00;37.03;34.17;52.48;;
66399;Laerm;54877;51.504;3.894;2024-02-26T01:04:27;42.62;34.19;66.72;;
66399;Laerm;54877;51.504;3.894;2024-02-26T01:06:52;39.97;34.36;62.23;;
66399;Laerm;54877;51.504;3.894;2024-02-26T01:09:18;36.45;34.21;57.63;;
66399;Laerm;54877;51.504;3.894;2024-02-26T01:11:43;38.18;34.29;56.78;;
66399;Laerm;54877;51.504;3.894;2024-02-26T01:14:09;36.81;33.81;51.18;;
66399;Laerm;54877;51.504;3.894;2024-02-26T01:16:34;40.14;34.42;60.17;;
66399;Laerm;54877;51.504;3.894;2024-02-26T01:18:59;38.22;34.27;59.77;;
66399;Laerm;54877;51.504;3.894;2024-02-26T01:21:28;37.44;34.42;60.69;;
66399;Laerm;54877;51.504;3.894;2024-02-26T01:23:54;37.65;34.43;57.17;;
66399;Laerm;54877;51.504;3.894;2024-02-26T01:26:19;38.15;34.31;55.17;;
66399;Laerm;54877;51.504;3.894;2024-02-26T01:28:46;39.25;34.33;60.52;;
66399;Laerm;54877;51.504;3.894;2024-02-26T01:31:11;39.08;34.41;63.91;;
66399;Laerm;54877;51.504;3.894;2024-02-26T01:33:37;40.63;34.11;64.82;;
66399;Laerm;54877;51.504;3.894;2024-02-26T01:36:02;41.78;34.34;61.51;;
66399;Laerm;54877;51.504;3.894;2024-02-26T01:38:27;37.00;34.34;52.61;;
66399;Laerm;54877;51.504;3.894;2024-02-26T01:40:53;40.48;34.13;65.60;;
66399;Laerm;54877;51.504;3.894;2024-02-26T01:43:18;38.01;34.26;61.10;;
66399;Laerm;54877;51.504;3.894;2024-02-26T01:45:43;39.79;34.24;61.85;;
66399;Laerm;54877;51.504;3.894;2024-02-26T01:48:09;37.72;34.24;61.43;;
66399;Laerm;54877;51.504;3.894;2024-02-26T01:50:36;40.63;34.14;63.12;;
66399;Laerm;54877;51.504;3.894;2024-02-26T01:53:03;39.98;34.35;64.84;;
66399;Laerm;54877;51.504;3.894;2024-02-26T01:55:28;38.36;34.32;58.33;;
66399;Laerm;54877;51.504;3.894;2024-02-26T01:57:54;41.14;34.32;67.14;;
66399;Laerm;54877;51.504;3.894;2024-02-26T02:00:20;41.05;34.36;67.26;;
66399;Laerm;54877;51.504;3.894;2024-02-26T02:02:46;41.54;33.98;67.26;;
66399;Laerm;54877;51.504;3.894;2024-02-26T02:05:15;43.18;34.64;67.08;;
66399;Laerm;54877;51.504;3.894;2024-02-26T02:07:41;44.01;34.89;72.42;;
66399;Laerm;54877;51.504;3.894;2024-02-26T02:10:07;39.97;34.78;64.45;;
66399;Laerm;54877;51.504;3.894;2024-02-26T02:12:32;37.40;34.66;51.46;;
66399;Laerm;54877;51.504;3.894;2024-02-26T02:14:59;41.58;34.84;62.39;;
66399;Laerm;54877;51.504;3.894;2024-02-26T02:17:26;39.33;34.81;58.24;;
66399;Laerm;54877;51.504;3.894;2024-02-26T02:19:52;43.15;34.67;66.56;;
66399;Laerm;54877;51.504;3.894;2024-02-26T02:22:18;39.88;34.97;63.61;;
66399;Laerm;54877;51.504;3.894;2024-02-26T02:24:44;38.63;34.87;59.91;;
66399;Laerm;54877;51.504;3.894;2024-02-26T02:27:10;38.73;34.81;60.26;;
66399;Laerm;54877;51.504;3.894;2024-02-26T02:29:36;38.33;34.74;55.65;;
66399;Laerm;54877;51.504;3.894;2024-02-26T02:32:03;38.95;34.80;59.37;;
66399;Laerm;54877;51.504;3.894;2024-02-26T02:34:31;41.79;34.69;67.15;;
66399;Laerm;54877;51.504;3.894;2024-02-26T02:36:56;37.24;34.84;54.63;;
66399;Laerm;54877;51.504;3.894;2024-02-26T02:39:22;39.21;34.65;62.70;;
66399;Laerm;54877;51.504;3.894;2024-02-26T02:41:47;39.28;34.83;60.87;;
66399;Laerm;54877;51.504;3.894;2024-02-26T02:44:12;40.82;35.31;61.99;;
66399;Laerm;54877;51.504;3.894;2024-02-26T02:46:38;40.06;35.16;64.27;;
66399;Laerm;54877;51.504;3.894;2024-02-26T02:49:04;41.18;35.43;68.98;;
66399;Laerm;54877;51.504;3.894;2024-02-26T02:51:29;41.60;34.92;64.94;;
66399;Laerm;54877;51.504;3.894;2024-02-26T02:53:54;40.68;34.93;60.49;;
66399;Laerm;54877;51.504;3.894;2024-02-26T02:56:20;41.60;34.79;63.41;;
66399;Laerm;54877;51.504;3.894;2024-02-26T02:58:45;40.03;34.91;67.20;;
66399;Laerm;54877;51.504;3.894;2024-02-26T03:01:10;38.24;34.91;60.32;;
66399;Laerm;54877;51.504;3.894;2024-02-26T03:03:36;40.29;35.01;61.93;;
66399;Laerm;54877;51.504;3.894;2024-02-26T03:06:02;41.74;35.21;63.42;;
66399;Laerm;54877;51.504;3.894;2024-02-26T03:08:28;40.64;35.28;64.19;;
66399;Laerm;54877;51.504;3.894;2024-02-26T03:10:54;38.12;35.15;62.02;;
66399;Laerm;54877;51.504;3.894;2024-02-26T03:13:19;39.09;35.21;59.50;;
66399;Laerm;54877;51.504;3.894;2024-02-26T03:15:45;41.24;35.49;63.10;;
66399;Laerm;54877;51.504;3.894;2024-02-26T03:18:10;39.91;35.57;60.15;;
66399;Laerm;54877;51.504;3.894;2024-02-26T03:20:35;38.36;35.60;57.86;;
66399;Laerm;54877;51.504;3.894;2024-02-26T03:23:02;43.24;35.78;67.29;;
66399;Laerm;54877;51.504;3.894;2024-02-26T03:25:27;41.14;35.89;61.82;;
66399;Laerm;54877;51.504;3.894;2024-02-26T03:27:52;39.23;36.05;57.01;;
66399;Laerm;54877;51.504;3.894;2024-02-26T03:30:18;41.18;36.75;59.06;;
66399;Laerm;54877;51.504;3.894;2024-02-26T03:32:43;39.43;36.91;54.86;;
66399;Laerm;54877;51.504;3.894;2024-02-26T03:35:09;42.48;36.88;64.97;;
66399;Laerm;54877;51.504;3.894;2024-02-26T03:37:34;48.30;37.13;72.15;;
66399;Laerm;54877;51.504;3.894;2024-02-26T03:39:59;41.02;37.10;63.02;;
66399;Laerm;54877;51.504;3.894;2024-02-26T03:42:26;41.20;36.66;61.29;;
66399;Laerm;54877;51.504;3.894;2024-02-26T03:44:51;38.73;36.61;51.78;;
66399;Laerm;54877;51.504;3.894;2024-02-26T03:47:17;40.86;36.21;61.82;;
66399;Laerm;54877;51.504;3.894;2024-02-26T03:49:42;41.49;36.29;69.64;;
66399;Laerm;54877;51.504;3.894;2024-02-26T03:52:07;39.11;36.82;49.18;;
66399;Laerm;54877;51.504;3.894;2024-02-26T03:54:33;39.20;36.84;52.89;;
66399;Laerm;54877;51.504;3.894;2024-02-26T03:56:58;40.19;36.98;54.48;;
66399;Laerm;54877;51.504;3.894;2024-02-26T03:59:23;39.29;36.75;53.09;;
66399;Laerm;54877;51.504;3.894;2024-02-26T04:01:50;43.00;36.53;59.08;;
66399;Laerm;54877;51.504;3.894;2024-02-26T04:04:15;38.37;36.16;56.18;;
66399;Laerm;54877;51.504;3.894;2024-02-26T04:06:47;38.77;36.12;53.76;;
66399;Laerm;54877;51.504;3.894;2024-02-26T04:09:15;41.42;36.18;64.19;;
66399;Laerm;54877;51.504;3.894;2024-02-26T04:11:41;40.07;35.56;60.52;;
66399;Laerm;54877;51.504;3.894;2024-02-26T04:14:08;38.27;35.68;54.38;;
66399;Laerm;54877;51.504;3.894;2024-02-26T04:16:34;38.86;35.95;59.81;;
66399;Laerm;54877;51.504;3.894;2024-02-26T04:19:01;38.39;35.87;51.01;;
66399;Laerm;54877;51.504;3.894;2024-02-26T04:21:26;38.43;35.91;50.62;;
66399;Laerm;54877;51.504;3.894;2024-02-26T04:23:51;37.54;35.73;41.99;;
66399;Laerm;54877;51.504;3.894;2024-02-26T04:26:20;38.05;35.69;48.96;;
66399;Laerm;54877;51.504;3.894;2024-02-26T04:28:46;38.46;35.91;57.34;;
66399;Laerm;54877;51.504;3.894;2024-02-26T04:31:11;39.47;36.29;58.44;;
66399;Laerm;54877;51.504;3.894;2024-02-26T04:33:36;39.70;36.13;61.08;;
66399;Laerm;54877;51.504;3.894;2024-02-26T04:36:02;38.33;36.25;53.43;;
66399;Laerm;54877;51.504;3.894;2024-02-26T04:38:28;42.89;36.13;70.61;;
66399;Laerm;54877;51.504;3.894;2024-02-26T04:40:53;39.02;36.10;57.67;;
66399;Laerm;54877;51.504;3.894;2024-02-26T04:43:19;39.02;36.12;59.09;;
66399;Laerm;54877;51.504;3.894;2024-02-26T04:45:44;38.23;35.83;58.37;;
66399;Laerm;54877;51.504;3.894;2024-02-26T04:48:10;37.68;36.00;45.56;;
66399;Laerm;54877;51.504;3.894;2024-02-26T04:50:35;41.82;35.64;64.95;;
66399;Laerm;54877;51.504;3.894;2024-02-26T04:53:00;41.66;35.70;65.83;;
66399;Laerm;54877;51.504;3.894;2024-02-26T04:55:26;42.39;35.49;70.42;;
66399;Laerm;54877;51.504;3.894;2024-02-26T04:57:51;39.45;35.35;60.85;;
66399;Laerm;54877;51.504;3.894;2024-02-26T05:00:16;37.21;35.58;52.89;;
66399;Laerm;54877;51.504;3.894;2024-02-26T05:02:42;37.44;35.48;58.51;;
66399;Laerm;54877;51.504;3.894;2024-02-26T05:05:07;40.48;35.41;59.95;;
66399;Laerm;54877;51.504;3.894;2024-02-26T05:07:34;37.00;35.25;54.70;;
66399;Laerm;54877;51.504;3.894;2024-02-26T05:09:59;45.98;35.36;73.26;;
66399;Laerm;54877;51.504;3.894;2024-02-26T05:12:24;37.63;35.22;56.82;;
66399;Laerm;54877;51.504;3.894;2024-02-26T05:14:50;38.80;35.17;55.23;;
66399;Laerm;54877;51.504;3.894;2024-02-26T05:17:15;37.31;35.02;52.12;;
66399;Laerm;54877;51.504;3.894;2024-02-26T05:19:40;37.99;35.03;49.07;;
66399;Laerm;54877;51.504;3.894;2024-02-26T05:22:06;38.62;35.52;54.10;;
66399;Laerm;54877;51.504;3.894;2024-02-26T05:24:31;44.83;35.39;62.58;;
66399;Laerm;54877;51.504;3.894;2024-02-26T05:26:56;41.21;35.64;65.25;;
66399;Laerm;54877;51.504;3.894;2024-02-26T05:29:22;47.46;35.50;68.20;;
66399;Laerm;54877;51.504;3.894;2024-02-26T05:31:47;40.16;35.69;68.72;;
66399;Laerm;54877;51.504;3.894;2024-02-26T05:34:12;43.21;35.45;60.43;;
66399;Laerm;54877;51.504;3.894;2024-02-26T05:36:38;45.50;35.66;65.42;;
66399;Laerm;54877;51.504;3.894;2024-02-26T05:39:03;41.44;35.70;67.04;;
66399;Laerm;54877;51.504;3.894;2024-02-26T05:41:29;38.98;36.05;62.81;;
66399;Laerm;54877;51.504;3.894;2024-02-26T05:43:55;39.07;35.77;57.95;;
66399;Laerm;54877;51.504;3.894;2024-02-26T05:46:21;39.11;35.63;58.73;;
66399;Laerm;54877;51.504;3.894;2024-02-26T05:48:48;41.26;35.84;67.05;;
66399;Laerm;54877;51.504;3.894;2024-02-26T05:51:13;38.36;35.85;56.60;;
66399;Laerm;54877;51.504;3.894;2024-02-26T05:53:39;39.02;36.02;58.44;;
66399;Laerm;54877;51.504;3.894;2024-02-26T05:56:06;40.07;35.91;62.96;;
66399;Laerm;54877;51.504;3.894;2024-02-26T05:58:31;38.59;35.86;59.89;;
66399;Laerm;54877;51.504;3.894;2024-02-26T06:00:56;48.77;35.94;66.90;;
66399;Laerm;54877;51.504;3.894;2024-02-26T06:03:22;39.55;35.65;56.11;;
66399;Laerm;54877;51.504;3.894;2024-02-26T06:05:47;42.93;36.23;66.29;;
66399;Laerm;54877;51.504;3.894;2024-02-26T06:08:12;40.46;36.43;59.87;;
66399;Laerm;54877;51.504;3.894;2024-02-26T06:10:39;46.34;36.21;73.67;;
66399;Laerm;54877;51.504;3.894;2024-02-26T06:13:04;48.35;36.35;66.28;;
66399;Laerm;54877;51.504;3.894;2024-02-26T06:15:30;43.22;36.11;64.68;;
66399;Laerm;54877;51.504;3.894;2024-02-26T06:17:55;47.99;36.08;66.83;;
66399;Laerm;54877;51.504;3.894;2024-02-26T06:20:20;48.96;36.12;66.71;;
66399;Laerm;54877;51.504;3.894;2024-02-26T06:22:46;41.05;36.18;62.36;;
66399;Laerm;54877;51.504;3.894;2024-02-26T06:25:11;46.62;36.49;64.47;;
66399;Laerm;54877;51.504;3.894;2024-02-26T06:27:36;50.62;36.50;71.72;;
66399;Laerm;54877;51.504;3.894;2024-02-26T06:30:02;38.36;36.21;56.29;;
66399;Laerm;54877;51.504;3.894;2024-02-26T06:32:27;47.59;36.85;65.45;;
66399;Laerm;54877;51.504;3.894;2024-02-26T06:34:54;43.87;36.66;72.06;;
66399;Laerm;54877;51.504;3.894;2024-02-26T06:37:19;40.47;37.02;59.28;;
66399;Laerm;54877;51.504;3.894;2024-02-26T06:39:45;41.94;37.03;63.29;;
66399;Laerm;54877;51.504;3.894;2024-02-26T06:42:10;48.79;36.85;64.65;;
66399;Laerm;54877;51.504;3.894;2024-02-26T06:44:36;46.62;36.75;61.93;;
66399;Laerm;54877;51.504;3.894;2024-02-26T06:47:01;52.96;37.73;69.47;;
66399;Laerm;54877;51.504;3.894;2024-02-26T06:49:27;49.47;36.44;70.83;;
66399;Laerm;54877;51.504;3.894;2024-02-26T06:51:53;50.25;37.14;63.71;;
66399;Laerm;54877;51.504;3.894;2024-02-26T06:54:18;52.08;37.23;68.73;;
66399;Laerm;54877;51.504;3.894;2024-02-26T06:56:44;41.85;37.25;60.53;;
66399;Laerm;54877;51.504;3.894;2024-02-26T06:59:09;47.76;37.19;65.25;;
66399;Laerm;54877;51.504;3.894;2024-02-26T07:01:34;49.14;37.15;71.48;;
66399;Laerm;54877;51.504;3.894;2024-02-26T07:04:00;49.12;36.86;67.37;;
66399;Laerm;54877;51.504;3.894;2024-02-26T07:06:26;48.38;37.50;66.55;;
66399;Laerm;54877;51.504;3.894;2024-02-26T07:08:51;54.03;37.45;74.42;;
66399;Laerm;54877;51.504;3.894;2024-02-26T07:11:17;51.00;36.91;69.09;;
66399;Laerm;54877;51.504;3.894;2024-02-26T07:13:44;46.57;36.76;66.19;;
66399;Laerm;54877;51.504;3.894;2024-02-26T07:16:09;50.45;36.87;64.52;;
66399;Laerm;54877;51.504;3.894;2024-02-26T07:18:35;50.27;36.87;66.25;;
66399;Laerm;54877;51.504;3.894;2024-02-26T07:21:04;52.82;37.80;67.07;;
66399;Laerm;54877;51.504;3.894;2024-02-26T07:23:29;50.86;37.26;71.20;;
66399;Laerm;54877;51.504;3.894;2024-02-26T07:25:55;42.66;37.06;63.73;;
66399;Laerm;54877;51.504;3.894;2024-02-26T07:28:20;49.53;37.68;65.09;;
66399;Laerm;54877;51.504;3.894;2024-02-26T07:30:46;53.19;38.02;68.82;;
66399;Laerm;54877;51.504;3.894;2024-02-26T07:33:11;48.98;38.12;66.39;;
66399;Laerm;54877;51.504;3.894;2024-02-26T07:35:36;47.95;37.64;63.62;;
66399;Laerm;54877;51.504;3.894;2024-02-26T07:38:04;52.49;37.22;73.65;;
66399;Laerm;54877;51.504;3.894;2024-02-26T07:40:29;49.31;37.66;63.19;;
66399;Laerm;54877;51.504;3.894;2024-02-26T07:42:55;53.36;37.30;72.85;;
66399;Laerm;54877;51.504;3.894;2024-02-26T07:45:21;49.37;36.96;67.27;;
66399;Laerm;54877;51.504;3.894;2024-02-26T07:47:49;45.79;37.29;72.27;;
66399;Laerm;54877;51.504;3.894;2024-02-26T07:50:16;51.66;36.65;70.73;;
66399;Laerm;54877;51.504;3.894;2024-02-26T07:52:41;50.43;37.41;69.94;;
66399;Laerm;54877;51.504;3.894;2024-02-26T07:55:07;47.85;37.25;65.87;;
66399;Laerm;54877;51.504;3.894;2024-02-26T07:57:32;50.10;36.62;66.93;;
66399;Laerm;54877;51.504;3.894;2024-02-26T08:00:02;47.84;37.03;67.34;;
66399;Laerm;54877;51.504;3.894;2024-02-26T08:02:28;45.74;37.06;71.96;;
66399;Laerm;54877;51.504;3.894;2024-02-26T08:04:53;50.69;36.18;70.49;;
66399;Laerm;54877;51.504;3.894;2024-02-26T08:07:18;43.58;36.79;65.05;;
66399;Laerm;54877;51.504;3.894;2024-02-26T08:09:45;43.70;37.19;67.43;;
66399;Laerm;54877;51.504;3.894;2024-02-26T08:12:11;46.67;37.53;66.88;;
66399;Laerm;54877;51.504;3.894;2024-02-26T08:14:36;53.25;38.35;63.17;;
66399;Laerm;54877;51.504;3.894;2024-02-26T08:17:02;61.68;38.23;80.06;;
66399;Laerm;54877;51.504;3.894;2024-02-26T08:19:27;57.52;37.71;78.15;;
66399;Laerm;54877;51.504;3.894;2024-02-26T08:21:52;45.56;37.55;70.01;;
66399;Laerm;54877;51.504;3.894;2024-02-26T08:24:18;47.10;36.95;65.53;;
66399;Laerm;54877;51.504;3.894;2024-02-26T08:26:43;47.13;37.20;66.21;;
66399;Laerm;54877;51.504;3.894;2024-02-26T08:29:08;50.38;37.81;67.62;;
66399;Laerm;54877;51.504;3.894;2024-02-26T08:31:34;43.13;37.25;62.23;;
66399;Laerm;54877;51.504;3.894;2024-02-26T08:34:02;46.05;37.02;59.00;;
66399;Laerm;54877;51.504;3.894;2024-02-26T08:36:28;39.51;36.68;47.42;;
66399;Laerm;54877;51.504;3.894;2024-02-26T08:38:53;52.67;36.60;73.69;;
66399;Laerm;54877;51.504;3.894;2024-02-26T08:41:19;41.43;37.01;56.85;;
66399;Laerm;54877;51.504;3.894;2024-02-26T08:43:44;47.02;37.40;63.58;;
66399;Laerm;54877;51.504;3.894;2024-02-26T08:46:09;39.53;36.46;53.55;;
66399;Laerm;54877;51.504;3.894;2024-02-26T08:48:35;44.55;36.73;67.47;;
66399;Laerm;54877;51.504;3.894;2024-02-26T08:51:07;41.82;36.73;67.00;;
66399;Laerm;54877;51.504;3.894;2024-02-26T08:53:34;48.24;37.10;64.28;;
66399;Laerm;54877;51.504;3.894;2024-02-26T08:56:00;46.06;37.12;65.88;;
66399;Laerm;54877;51.504;3.894;2024-02-26T08:58:27;49.92;36.91;79.67;;
66399;Laerm;54877;51.504;3.894;2024-02-26T09:00:52;48.00;37.07;64.61;;
66399;Laerm;54877;51.504;3.894;2024-02-26T09:03:17;45.37;36.56;68.57;;
66399;Laerm;54877;51.504;3.894;2024-02-26T09:05:43;39.26;36.66;51.45;;
66399;Laerm;54877;51.504;3.894;2024-02-26T09:08:08;49.63;36.28;65.63;;
66399;Laerm;54877;51.504;3.894;2024-02-26T09:10:34;49.48;36.96;69.86;;
66399;Laerm;54877;51.504;3.894;2024-02-26T09:12:59;44.98;37.23;64.17;;
66399;Laerm;54877;51.504;3.894;2024-02-26T09:15:24;41.60;36.83;68.53;;
66399;Laerm;54877;51.504;3.894;2024-02-26T09:17:50;45.06;37.15;61.68;;
66399;Laerm;54877;51.504;3.894;2024-02-26T09:20:16;49.32;37.27;70.10;;
66399;Laerm;54877;51.504;3.894;2024-02-26T09:22:45;48.82;37.22;69.14;;
66399;Laerm;54877;51.504;3.894;2024-02-26T09:25:11;46.69;37.69;63.24;;
66399;Laerm;54877;51.504;3.894;2024-02-26T09:27:36;52.92;37.02;74.46;;
66399;Laerm;54877;51.504;3.894;2024-02-26T09:30:02;51.18;38.25;69.99;;
66399;Laerm;54877;51.504;3.894;2024-02-26T09:32:28;46.22;38.37;62.70;;
66399;Laerm;54877;51.504;3.894;2024-02-26T09:34:53;53.18;37.69;72.05;;
66399;Laerm;54877;51.504;3.894;2024-02-26T09:37:18;53.12;38.33;72.60;;
66399;Laerm;54877;51.504;3.894;2024-02-26T09:39:43;46.99;37.15;65.66;;
66399;Laerm;54877;51.504;3.894;2024-02-26T09:42:12;41.87;36.88;65.16;;
66399;Laerm;54877;51.504;3.894;2024-02-26T09:44:40;47.37;36.55;65.62;;
66399;Laerm;54877;51.504;3.894;2024-02-26T09:47:08;38.40;36.36;51.28;;
66399;Laerm;54877;51.504;3.894;2024-02-26T09:49:35;49.50;37.30;64.82;;
66399;Laerm;54877;51.504;3.894;2024-02-26T09:52:01;48.06;36.49;72.47;;
66399;Laerm;54877;51.504;3.894;2024-02-26T09:54:28;40.18;36.84;55.33;;
66399;Laerm;54877;51.504;3.894;2024-02-26T09:56:59;51.06;36.86;66.74;;
66399;Laerm;54877;51.504;3.894;2024-02-26T09:59:25;42.37;36.64;64.73;;
66399;Laerm;54877;51.504;3.894;2024-02-26T10:01:51;41.08;36.39;63.56;;
66399;Laerm;54877;51.504;3.894;2024-02-26T10:04:18;52.74;37.13;73.29;;
66399;Laerm;54877;51.504;3.894;2024-02-26T10:06:44;46.82;36.57;62.84;;
66399;Laerm;54877;51.504;3.894;2024-02-26T10:09:11;45.72;36.95;70.92;;
66399;Laerm;54877;51.504;3.894;2024-02-26T10:11:37;40.25;36.95;58.32;;
66399;Laerm;54877;51.504;3.894;2024-02-26T10:14:03;40.89;36.79;56.24;;
66399;Laerm;54877;51.504;3.894;2024-02-26T10:16:29;42.79;36.94;63.51;;
66399;Laerm;54877;51.504;3.894;2024-02-26T10:18:55;41.56;37.07;59.16;;
66399;Laerm;54877;51.504;3.894;2024-02-26T10:21:21;42.06;37.87;54.62;;
66399;Laerm;54877;51.504;3.894;2024-02-26T10:23:47;52.83;37.93;65.68;;
66399;Laerm;54877;51.504;3.894;2024-02-26T10:26:13;43.35;37.03;64.76;;
66399;Laerm;54877;51.504;3.894;2024-02-26T10:28:41;43.22;37.93;69.30;;
66399;Laerm;54877;51.504;3.894;2024-02-26T10:31:06;48.39;37.91;69.60;;
66399;Laerm;54877;51.504;3.894;2024-02-26T10:33:33;44.86;37.59;66.82;;
66399;Laerm;54877;51.504;3.894;2024-02-26T10:36:01;51.27;37.93;75.08;;
66399;Laerm;54877;51.504;3.894;2024-02-26T10:38:26;41.61;37.34;56.55;;
66399;Laerm;54877;51.504;3.894;2024-02-26T10:40:51;48.97;37.22;66.11;;
66399;Laerm;54877;51.504;3.894;2024-02-26T10:43:17;42.27;36.65;59.77;;
66399;Laerm;54877;51.504;3.894;2024-02-26T10:45:43;41.18;37.11;60.70;;
66399;Laerm;54877;51.504;3.894;2024-02-26T10:48:10;41.28;36.74;61.21;;
66399;Laerm;54877;51.504;3.894;2024-02-26T10:50:36;41.68;36.96;62.16;;
66399;Laerm;54877;51.504;3.894;2024-02-26T10:53:02;49.96;37.23;67.58;;
66399;Laerm;54877;51.504;3.894;2024-02-26T10:55:29;45.13;36.56;63.79;;
66399;Laerm;54877;51.504;3.894;2024-02-26T10:57:55;39.65;36.82;53.76;;
66399;Laerm;54877;51.504;3.894;2024-02-26T11:00:21;42.49;36.95;64.03;;
66399;Laerm;54877;51.504;3.894;2024-02-26T11:02:48;48.51;36.98;66.74;;
66399;Laerm;54877;51.504;3.894;2024-02-26T11:05:14;49.92;37.88;70.53;;
66399;Laerm;54877;51.504;3.894;2024-02-26T11:07:41;42.56;36.81;66.92;;
66399;Laerm;54877;51.504;3.894;2024-02-26T11:10:07;43.15;36.82;67.75;;
66399;Laerm;54877;51.504;3.894;2024-02-26T11:12:34;49.74;36.79;69.70;;
66399;Laerm;54877;51.504;3.894;2024-02-26T11:15:03;41.81;36.68;62.99;;
66399;Laerm;54877;51.504;3.894;2024-02-26T11:17:29;46.31;36.51;76.39;;
66399;Laerm;54877;51.504;3.894;2024-02-26T11:19:57;40.55;36.56;56.73;;
66399;Laerm;54877;51.504;3.894;2024-02-26T11:22:24;51.33;37.55;73.33;;
66399;Laerm;54877;51.504;3.894;2024-02-26T11:24:52;46.65;37.57;64.77;;
66399;Laerm;54877;51.504;3.894;2024-02-26T11:27:19;50.74;37.25;70.57;;
66399;Laerm;54877;51.504;3.894;2024-02-26T11:29:52;42.86;36.52;67.67;;
66399;Laerm;54877;51.504;3.894;2024-02-26T11:32:19;50.23;36.54;73.19;;
66399;Laerm;54877;51.504;3.894;2024-02-26T11:34:45;53.40;37.37;66.88;;
66399;Laerm;54877;51.504;3.894;2024-02-26T11:37:14;45.83;36.82;65.04;;
66399;Laerm;54877;51.504;3.894;2024-02-26T11:39:43;50.73;36.67;72.09;;
66399;Laerm;54877;51.504;3.894;2024-02-26T11:42:14;53.52;37.47;72.81;;
66399;Laerm;54877;51.504;3.894;2024-02-26T11:44:39;42.82;36.83;62.04;;
66399;Laerm;54877;51.504;3.894;2024-02-26T11:47:13;49.40;36.87;68.28;;
66399;Laerm;54877;51.504;3.894;2024-02-26T11:49:39;45.60;36.63;62.53;;
66399;Laerm;54877;51.504;3.894;2024-02-26T11:52:07;40.06;36.94;55.68;;
66399;Laerm;54877;51.504;3.894;2024-02-26T11:54:50;40.90;36.33;64.20;;
66399;Laerm;54877;51.504;3.894;2024-02-26T11:57:29;46.76;36.83;60.24;;
66399;Laerm;54877;51.504;3.894;2024-02-26T12:02:47;49.17;36.99;77.98;;
66399;Laerm;54877;51.504;3.894;2024-02-26T12:05:17;41.77;36.77;58.97;;
66399;Laerm;54877;51.504;3.894;2024-02-26T12:07:49;51.63;37.59;67.78;;
66399;Laerm;54877;51.504;3.894;2024-02-26T12:15:39;48.91;36.79;69.25;;
66399;Laerm;54877;51.504;3.894;2024-02-26T12:18:06;44.30;37.42;65.28;;
66399;Laerm;54877;51.504;3.894;2024-02-26T12:20:33;48.44;37.55;77.17;;
66399;Laerm;54877;51.504;3.894;2024-02-26T12:22:58;41.09;36.93;58.54;;
66399;Laerm;54877;51.504;3.894;2024-02-26T12:25:26;46.16;37.33;69.63;;
66399;Laerm;54877;51.504;3.894;2024-02-26T12:27:53;46.78;37.45;70.08;;
66399;Laerm;54877;51.504;3.894;2024-02-26T12:30:18;49.89;37.82;68.18;;
66399;Laerm;54877;51.504;3.894;2024-02-26T12:32:45;52.10;37.15;70.87;;
66399;Laerm;54877;51.504;3.894;2024-02-26T12:35:11;46.09;37.37;69.98;;
66399;Laerm;54877;51.504;3.894;2024-02-26T12:37:38;53.70;37.54;71.92;;
66399;Laerm;54877;51.504;3.894;2024-02-26T12:40:06;43.70;36.93;66.61;;
66399;Laerm;54877;51.504;3.894;2024-02-26T12:42:33;41.17;36.85;62.49;;
66399;Laerm;54877;51.504;3.894;2024-02-26T12:45:07;51.58;37.04;65.43;;
66399;Laerm;54877;51.504;3.894;2024-02-26T12:47:37;48.62;36.85;68.65;;
66399;Laerm;54877;51.504;3.894;2024-02-26T12:50:03;46.36;37.04;61.74;;
66399;Laerm;54877;51.504;3.894;2024-02-26T12:52:30;48.71;37.28;65.22;;
66399;Laerm;54877;51.504;3.894;2024-02-26T12:54:56;52.89;37.31;72.99;;
66399;Laerm;54877;51.504;3.894;2024-02-26T12:57:21;42.72;37.47;66.08;;
66399;Laerm;54877;51.504;3.894;2024-02-26T12:59:47;54.45;37.48;78.46;;
66399;Laerm;54877;51.504;3.894;2024-02-26T13:02:13;43.62;37.23;64.71;;
66399;Laerm;54877;51.504;3.894;2024-02-26T13:04:38;55.34;37.70;74.53;;
66399;Laerm;54877;51.504;3.894;2024-02-26T13:07:04;54.06;37.41;68.22;;
66399;Laerm;54877;51.504;3.894;2024-02-26T13:09:34;52.70;37.48;69.31;;
66399;Laerm;54877;51.504;3.894;2024-02-26T13:12:03;50.95;38.44;65.64;;
66399;Laerm;54877;51.504;3.894;2024-02-26T13:14:29;43.01;37.41;61.71;;
66399;Laerm;54877;51.504;3.894;2024-02-26T13:16:57;47.31;36.82;64.24;;
66399;Laerm;54877;51.504;3.894;2024-02-26T13:19:23;42.30;37.32;58.77;;
66399;Laerm;54877;51.504;3.894;2024-02-26T13:21:49;47.83;37.33;65.54;;
66399;Laerm;54877;51.504;3.894;2024-02-26T13:24:14;46.25;37.02;69.41;;
66399;Laerm;54877;51.504;3.894;2024-02-26T13:26:39;42.76;37.16;59.55;;
66399;Laerm;54877;51.504;3.894;2024-02-26T13:29:05;46.71;37.21;69.79;;
66399;Laerm;54877;51.504;3.894;2024-02-26T13:31:31;51.14;36.92;68.41;;
66399;Laerm;54877;51.504;3.894;2024-02-26T13:33:57;41.50;36.48;55.39;;
66399;Laerm;54877;51.504;3.894;2024-02-26T13:36:25;42.19;37.26;58.66;;
66399;Laerm;54877;51.504;3.894;2024-02-26T13:38:52;44.80;36.79;68.79;;
66399;Laerm;54877;51.504;3.894;2024-02-26T13:41:18;53.79;37.88;71.97;;
66399;Laerm;54877;51.504;3.894;2024-02-26T13:43:43;53.71;37.38;71.30;;
66399;Laerm;54877;51.504;3.894;2024-02-26T13:46:09;49.02;36.91;68.85;;